Time;durP1;ratioP1;P1;durP2;ratioP2;P2;SDS_P1;SDS_P2;PMS_P1;PMS_P2;Temp;Humidity;BMP_temperature;BMP_pressure;BME280_temperature;BME280_humidity;BME280_pressure;Samples;Min_cycle;Max_cycle;Signal;HPM_P1;HPM_P2
2023/01/10 00:02:50;;;;;;;9.17;2.23;;;;;4.50;100855.00;;;;9904982;29;20291;-74
2023/01/10 00:07:52;;;;;;;7.20;2.47;;;;;4.40;100852.00;;;;9889191;30;20212;-76
2023/01/10 00:18:34;;;;;;;7.07;2.13;;;;;4.10;100877.00;;;;9820698;30;20212;-76
2023/01/10 00:23:36;;;;;;;12.10;2.43;;;;;4.00;100884.00;;;;9858500;30;20241;-76
2023/01/10 00:28:38;;;;;;;9.17;1.90;;;;;4.00;100895.00;;;;9875856;30;20253;-76
2023/01/10 00:33:40;;;;;;;12.83;2.33;;;;;4.10;100899.00;;;;9888996;29;20214;-76
2023/01/10 00:38:42;;;;;;;7.40;1.67;;;;;4.30;100898.00;;;;9875852;30;20200;-76
2023/01/10 00:43:56;;;;;;;8.37;2.43;;;;;4.60;100916.00;;;;9889488;30;20212;-76
2023/01/10 00:48:58;;;;;;;12.50;2.90;;;;;4.70;100919.00;;;;9860751;30;20195;-76
2023/01/10 00:54:00;;;;;;;11.57;2.57;;;;;4.90;100919.00;;;;9875802;29;20204;-76
2023/01/10 00:59:03;;;;;;;12.17;2.57;;;;;5.10;100925.00;;;;9869782;30;20206;-76
2023/01/10 01:04:05;;;;;;;7.67;2.80;;;;;5.10;100938.00;;;;9845260;29;20211;-76
2023/01/10 01:09:07;;;;;;;11.10;3.00;;;;;5.10;100941.00;;;;9858327;30;20214;-76
2023/01/10 01:14:08;;;;;;;13.47;2.43;;;;;5.20;100942.00;;;;9888738;30;20284;-76
2023/01/10 01:19:11;;;;;;;15.80;3.23;;;;;5.20;100956.00;;;;9874388;29;20199;-76
2023/01/10 01:24:13;;;;;;;12.70;2.63;;;;;5.30;100960.00;;;;9868221;30;20220;-76
2023/01/10 01:29:15;;;;;;;10.40;2.50;;;;;5.30;100958.00;;;;9874707;30;20284;-76
2023/01/10 01:34:18;;;;;;;8.67;2.50;;;;;5.20;100971.00;;;;9905878;30;20306;-76
2023/01/10 01:39:20;;;;;;;11.43;2.50;;;;;5.10;100965.00;;;;9887752;29;20210;-76
2023/01/10 01:44:28;;;;;;;12.83;2.20;;;;;4.90;100980.00;;;;9874114;30;20218;-76
2023/01/10 01:49:32;;;;;;;14.43;2.50;;;;;4.70;100993.00;;;;9889621;30;20208;-76
2023/01/10 01:54:34;;;;;;;8.53;2.40;;;;;4.50;100991.00;;;;9860322;30;20245;-76
2023/01/10 01:59:42;;;;;;;10.07;2.23;;;;;4.30;101001.00;;;;9873261;30;20352;-76
2023/01/10 02:04:55;;;;;;;7.30;2.40;;;;;4.20;101004.00;;;;9874009;30;20208;-79
2023/01/10 02:10:03;;;;;;;14.27;3.13;;;;;4.20;101008.00;;;;9873007;29;20613;-79
2023/01/10 02:15:06;;;;;;;9.63;2.30;;;;;4.20;101015.00;;;;9855424;29;20199;-79
2023/01/10 02:20:11;;;;;;;11.03;2.13;;;;;4.30;101012.00;;;;9897576;30;20750;-79
2023/01/10 02:25:25;;;;;;;12.50;2.70;;;;;4.40;101013.00;;;;9843361;30;20281;-79
2023/01/10 02:30:36;;;;;;;10.13;2.57;;;;;4.40;101006.00;;;;9871804;30;20264;-79
2023/01/10 02:35:59;;;;;;;9.43;2.13;;;;;4.30;101013.00;;;;9888636;29;20564;-79
2023/01/10 02:41:19;;;;;;;15.47;2.60;;;;;4.20;101034.00;;;;9845431;30;20206;-79
2023/01/10 02:46:26;;;;;;;12.57;2.87;;;;;4.10;101026.00;;;;9868905;30;20306;-79
2023/01/10 02:51:32;;;;;;;13.27;2.03;;;;;4.10;101030.00;;;;9872115;30;20520;-79
2023/01/10 02:57:03;;;;;;;12.43;2.50;;;;;4.00;101033.00;;;;9856703;30;20207;-79
2023/01/10 03:02:08;;;;;;;9.20;2.57;;;;;3.90;101044.00;;;;9862604;30;20215;-79
2023/01/10 03:07:19;;;;;;;10.63;1.90;;;;;3.90;101059.00;;;;9862777;29;20220;-79
2023/01/10 03:12:24;;;;;;;9.37;2.37;;;;;3.90;101052.00;;;;9878749;30;20227;-79
2023/01/10 03:17:28;;;;;;;11.47;2.20;;;;;3.90;101054.00;;;;9855723;30;20223;-79
2023/01/10 03:22:34;;;;;;;14.87;2.83;;;;;3.90;101057.00;;;;9895673;29;20796;-79
2023/01/10 03:27:43;;;;;;;7.53;2.40;;;;;3.80;101054.00;;;;9859228;29;20195;-79
2023/01/10 03:32:45;;;;;;;10.27;2.47;;;;;3.80;101071.00;;;;9893712;29;20282;-79
2023/01/10 03:38:03;;;;;;;7.40;2.33;;;;;3.80;101074.00;;;;9854647;30;20203;-79
2023/01/10 03:48:54;;;;;;;23.63;2.50;;;;;3.80;101079.00;;;;9907124;30;20710;-79
2023/01/10 03:54:00;;;;;;;15.20;3.37;;;;;3.80;101086.00;;;;9902722;30;20330;-79
2023/01/10 03:59:01;;;;;;;18.67;4.07;;;;;3.80;101090.00;;;;9893621;30;20286;-79
2023/01/10 04:04:03;;;;;;;15.20;3.13;;;;;3.80;101101.00;;;;9895362;30;20219;-79
2023/01/10 04:09:05;;;;;;;14.30;2.70;;;;;3.80;101111.00;;;;9862618;29;20227;-79
2023/01/10 04:14:07;;;;;;;19.00;2.60;;;;;3.80;101111.00;;;;9883583;30;20234;-79
2023/01/10 04:19:09;;;;;;;7.70;2.43;;;;;3.80;101125.00;;;;9871929;30;20224;-79
2023/01/10 04:24:11;;;;;;;13.43;2.47;;;;;3.80;101125.00;;;;9852592;30;20568;-79
2023/01/10 04:29:13;;;;;;;8.40;2.40;;;;;3.80;101134.00;;;;9890767;30;20215;-79
2023/01/10 04:34:16;;;;;;;13.13;2.57;;;;;3.70;101135.00;;;;9883279;30;20266;-79
2023/01/10 04:39:18;;;;;;;10.97;2.60;;;;;3.70;101139.00;;;;9876203;29;20200;-79
2023/01/10 04:44:20;;;;;;;16.77;3.47;;;;;3.70;101143.00;;;;9835235;30;20245;-79
2023/01/10 04:49:22;;;;;;;16.83;2.67;;;;;3.70;101152.00;;;;9861900;30;20210;-79
2023/01/10 04:54:23;;;;;;;10.00;2.53;;;;;3.80;101152.00;;;;9863414;30;20292;-79
2023/01/10 04:59:25;;;;;;;14.10;3.57;;;;;3.90;101155.00;;;;9846143;30;20212;-79
2023/01/10 05:04:27;;;;;;;11.90;3.13;;;;;4.00;101165.00;;;;9905662;30;20887;-79
2023/01/10 05:09:29;;;;;;;12.53;2.40;;;;;4.00;101164.00;;;;9901667;29;20236;-79
2023/01/10 05:14:31;;;;;;;16.40;3.10;;;;;4.00;101174.00;;;;9885200;29;20299;-79
2023/01/10 05:19:33;;;;;;;11.50;2.67;;;;;3.80;101180.00;;;;9895134;30;20203;-79
2023/01/10 05:24:35;;;;;;;11.60;2.43;;;;;3.60;101184.00;;;;9889594;30;20257;-78
2023/01/10 05:29:37;;;;;;;9.57;3.83;;;;;3.40;101204.00;;;;9886552;29;20188;-79
2023/01/10 05:34:39;;;;;;;17.40;3.30;;;;;3.40;101206.00;;;;9878134;29;20203;-79
2023/01/10 05:39:42;;;;;;;19.63;2.53;;;;;3.40;101194.00;;;;9889334;30;20195;-79
2023/01/10 05:44:44;;;;;;;20.93;3.07;;;;;3.50;101191.00;;;;9872751;29;20212;-79
2023/01/10 05:49:46;;;;;;;13.33;2.37;;;;;3.40;101191.00;;;;9852860;29;20618;-79
2023/01/10 05:54:48;;;;;;;15.07;2.23;;;;;3.30;101223.00;;;;9859085;30;20253;-79
2023/01/10 05:59:51;;;;;;;11.50;2.73;;;;;3.20;101223.00;;;;9873954;30;21021;-79
2023/01/10 06:04:54;;;;;;;13.23;2.37;;;;;3.20;101223.00;;;;9863595;30;20214;-79
2023/01/10 06:09:56;;;;;;;11.83;2.60;;;;;3.20;101222.00;;;;9873961;30;20235;-79
2023/01/10 06:14:57;;;;;;;17.20;3.07;;;;;3.20;101229.00;;;;9872612;30;20216;-79
2023/01/10 06:19:59;;;;;;;11.97;2.57;;;;;3.20;101238.00;;;;9885712;29;20199;-79
2023/01/10 06:25:01;;;;;;;18.77;2.57;;;;;3.30;101226.00;;;;9872541;30;20249;-79
2023/01/10 06:30:03;;;;;;;18.73;2.63;;;;;3.40;101226.00;;;;9886316;29;20200;-79
2023/01/10 06:35:06;;;;;;;10.70;2.27;;;;;3.20;101226.00;;;;9850234;29;20207;-79
2023/01/10 06:40:09;;;;;;;13.97;2.40;;;;;3.10;101237.00;;;;9852926;30;20204;-79
2023/01/10 06:45:11;;;;;;;12.83;3.33;;;;;3.10;101239.00;;;;9886187;30;20200;-79
2023/01/10 06:50:13;;;;;;;14.67;2.53;;;;;3.10;101247.00;;;;9850721;30;20238;-79
2023/01/10 06:55:15;;;;;;;5.87;1.60;;;;;3.20;101250.00;;;;9878029;29;20294;-79
2023/01/10 07:00:17;;;;;;;14.97;2.80;;;;;3.20;101259.00;;;;9885479;29;20231;-79
2023/01/10 07:05:20;;;;;;;13.47;2.27;;;;;3.10;101276.00;;;;9871784;30;20245;-79
2023/01/10 07:10:22;;;;;;;8.97;2.20;;;;;3.00;101273.00;;;;9856526;29;20235;-79
2023/01/10 07:15:25;;;;;;;8.90;2.20;;;;;2.90;101280.00;;;;9882713;30;20218;-79
2023/01/10 07:20:28;;;;;;;10.80;2.30;;;;;2.90;101291.00;;;;9871425;30;20196;-79
2023/01/10 07:25:29;;;;;;;7.57;1.30;;;;;2.90;101298.00;;;;9855942;30;20269;-79
2023/01/10 07:30:31;;;;;;;14.47;2.40;;;;;3.00;101301.00;;;;9887408;30;20655;-79
2023/01/10 07:35:33;;;;;;;12.17;2.40;;;;;3.00;101310.00;;;;9864574;29;20203;-79
2023/01/10 07:40:35;;;;;;;12.53;2.30;;;;;3.00;101318.00;;;;9874239;30;20211;-79
2023/01/10 07:45:37;;;;;;;13.80;2.20;;;;;3.10;101320.00;;;;9855753;30;20215;-79
2023/01/10 07:50:39;;;;;;;10.60;2.00;;;;;3.20;101321.00;;;;9884954;30;20207;-79
2023/01/10 07:55:42;;;;;;;17.73;2.80;;;;;3.40;101313.00;;;;9870502;30;20200;-79
2023/01/10 08:00:45;;;;;;;14.63;2.20;;;;;3.60;101303.00;;;;9827396;29;20212;-79
2023/01/10 08:05:46;;;;;;;9.17;2.03;;;;;3.70;101306.00;;;;9876271;29;20220;-78
2023/01/10 08:10:48;;;;;;;13.20;2.47;;;;;3.80;101308.00;;;;9865650;29;20262;-79
2023/01/10 08:15:51;;;;;;;12.03;2.57;;;;;4.00;101302.00;;;;9856613;30;20341;-78
2023/01/10 08:20:54;;;;;;;9.33;2.10;;;;;4.20;101304.00;;;;9873690;30;20192;-78
2023/01/10 08:25:58;;;;;;;9.30;2.37;;;;;4.30;101306.00;;;;9874161;30;20698;-78
2023/01/10 08:31:09;;;;;;;17.67;3.43;;;;;4.40;101311.00;;;;9873232;29;20200;-79
2023/01/10 08:36:20;;;;;;;9.30;2.57;;;;;4.40;101306.00;;;;9874702;29;20307;-79
2023/01/10 08:41:22;;;;;;;9.67;2.30;;;;;4.50;101311.00;;;;9867413;29;20216;-78
2023/01/10 08:46:24;;;;;;;12.00;2.93;;;;;4.60;101304.00;;;;9869351;30;20219;-79
2023/01/10 08:51:27;;;;;;;13.53;3.30;;;;;4.70;101303.00;;;;9889181;30;20219;-79
2023/01/10 08:56:29;;;;;;;15.10;2.90;;;;;4.80;101306.00;;;;9865972;29;20261;-79
2023/01/10 09:01:31;;;;;;;17.83;2.83;;;;;4.90;101308.00;;;;9892738;29;20260;-79
2023/01/10 09:06:33;;;;;;;15.50;5.47;;;;;5.10;101313.00;;;;9856726;29;20640;-79
2023/01/10 09:11:35;;;;;;;14.30;3.20;;;;;5.20;101312.00;;;;9861826;29;20284;-79
2023/01/10 09:16:37;;;;;;;16.07;3.57;;;;;5.40;101306.00;;;;9858457;29;20269;-79
2023/01/10 09:21:39;;;;;;;8.80;2.87;;;;;5.50;101292.00;;;;9872498;29;20188;-79
2023/01/10 09:26:41;;;;;;;13.83;2.87;;;;;5.60;101285.00;;;;9867026;29;20552;-79
2023/01/10 09:31:42;;;;;;;13.13;2.93;;;;;5.70;101279.00;;;;9866926;29;20332;-79
2023/01/10 09:36:44;;;;;;;13.50;2.80;;;;;5.80;101274.00;;;;9881968;29;20192;-79
2023/01/10 09:42:13;;;;;;;12.17;4.10;;;;;5.90;101268.00;;;;9884213;29;20203;-79
2023/01/10 09:47:32;;;;;;;11.33;2.87;;;;;6.10;101260.00;;;;9871398;29;20241;-79
2023/01/10 09:52:38;;;;;;;21.23;6.07;;;;;6.30;101252.00;;;;9882131;29;20227;-79
2023/01/10 09:57:40;;;;;;;18.90;3.17;;;;;6.40;101274.00;;;;9865413;29;20644;-79
2023/01/10 10:02:47;;;;;;;19.67;5.10;;;;;6.50;101255.00;;;;9880555;29;20195;-79
2023/01/10 10:08:03;;;;;;;12.33;3.20;;;;;6.60;101260.00;;;;9882706;29;20215;-79
2023/01/10 10:13:17;;;;;;;14.40;4.00;;;;;6.70;101258.00;;;;9880516;29;20757;-79
2023/01/10 10:18:51;;;;;;;11.83;2.93;;;;;6.80;101252.00;;;;9872377;30;20231;-77
2023/01/10 10:24:05;;;;;;;12.77;3.17;;;;;7.00;101244.00;;;;9899686;29;20269;-77
2023/01/10 10:29:32;;;;;;;14.70;3.10;;;;;7.30;101240.00;;;;9872276;29;20543;-77
2023/01/10 10:34:44;;;;;;;12.40;2.90;;;;;7.40;101225.00;;;;9854969;29;20203;-77
2023/01/10 10:39:51;;;;;;;15.87;2.67;;;;;7.50;101210.00;;;;9885808;30;20208;-77
2023/01/10 10:44:55;;;;;;;13.00;2.77;;;;;7.60;101201.00;;;;9899749;29;20306;-77
2023/01/10 10:50:16;;;;;;;17.37;2.87;;;;;7.70;101196.00;;;;9880378;30;20196;-77
2023/01/10 10:55:24;;;;;;;16.37;2.90;;;;;7.80;101187.00;;;;9870462;30;20208;-77
2023/01/10 11:00:26;;;;;;;8.03;2.37;;;;;7.80;101191.00;;;;9870418;30;20242;-77
2023/01/10 11:05:35;;;;;;;18.07;3.00;;;;;7.80;101179.00;;;;9871358;29;20219;-77
2023/01/10 11:10:39;;;;;;;13.83;2.83;;;;;7.70;101166.00;;;;9851325;29;20295;-77
2023/01/10 11:15:43;;;;;;;15.60;2.60;;;;;7.70;101167.00;;;;9885858;30;20631;-77
2023/01/10 11:20:59;;;;;;;16.77;2.77;;;;;7.60;101172.00;;;;9867898;30;20196;-77
2023/01/10 11:26:02;;;;;;;14.37;3.07;;;;;7.50;101161.00;;;;9874632;30;20807;-77
2023/01/10 11:31:04;;;;;;;14.53;3.00;;;;;7.60;101150.00;;;;9869283;30;20207;-77
2023/01/10 11:36:14;;;;;;;11.00;2.20;;;;;7.70;101149.00;;;;9878531;30;20216;-77
2023/01/10 11:41:16;;;;;;;19.33;3.37;;;;;7.80;101158.00;;;;9886807;30;20264;-77
2023/01/10 11:46:21;;;;;;;15.70;2.57;;;;;7.80;101159.00;;;;9828807;29;20238;-77
2023/01/10 11:51:27;;;;;;;14.27;2.60;;;;;7.80;101139.00;;;;9893187;30;20278;-78
2023/01/10 11:56:32;;;;;;;15.10;2.93;;;;;7.80;101127.00;;;;9872772;30;20207;-77
2023/01/10 12:02:09;;;;;;;14.67;2.70;;;;;7.90;101118.00;;;;9884044;29;20203;-80
2023/01/10 12:07:12;;;;;;;16.50;2.73;;;;;8.00;101111.00;;;;9851845;30;20212;-77
2023/01/10 12:12:26;;;;;;;15.57;2.50;;;;;8.00;101108.00;;;;9873158;30;20241;-76
2023/01/10 12:17:34;;;;;;;15.00;2.50;;;;;8.00;101096.00;;;;9906365;30;20663;-79
2023/01/10 12:22:44;;;;;;;12.83;2.47;;;;;7.90;101086.00;;;;9851407;30;20512;-77
2023/01/10 12:27:49;;;;;;;13.93;3.47;;;;;7.90;101084.00;;;;9899802;29;20772;-77
2023/01/10 12:32:53;;;;;;;15.63;2.90;;;;;7.90;101067.00;;;;9886436;29;20286;-77
2023/01/10 12:38:05;;;;;;;13.50;2.73;;;;;7.80;101058.00;;;;9868917;29;20266;-76
2023/01/10 12:49:01;;;;;;;16.87;2.70;;;;;7.80;101047.00;;;;9892769;29;20212;-77
2023/01/10 12:54:13;;;;;;;18.37;2.40;;;;;7.70;101021.00;;;;9856299;29;20223;-77
2023/01/10 12:59:28;;;;;;;12.60;2.83;;;;;7.70;101020.00;;;;9888306;29;20203;-77
2023/01/10 13:04:40;;;;;;;9.63;2.47;;;;;7.60;101015.00;;;;9853951;30;20214;-77
2023/01/10 13:09:43;;;;;;;10.07;2.30;;;;;7.50;100986.00;;;;9877581;29;20230;-77
2023/01/10 13:15:06;;;;;;;10.63;2.17;;;;;7.50;100974.00;;;;9861653;30;20192;-77
2023/01/10 13:20:23;;;;;;;11.97;3.13;;;;;7.30;100957.00;;;;9856685;30;20199;-77
2023/01/10 13:25:34;;;;;;;14.37;2.00;;;;;7.20;100949.00;;;;9857803;30;20280;-77
2023/01/10 13:30:41;;;;;;;8.90;2.20;;;;;6.90;100937.00;;;;9880106;30;20201;-78
2023/01/10 13:35:43;;;;;;;20.43;2.87;;;;;6.90;100904.00;;;;9886974;30;20219;-77
2023/01/10 13:41:04;;;;;;;8.83;2.47;;;;;6.90;100906.00;;;;9886413;30;20204;-78
2023/01/10 13:46:17;;;;;;;9.00;2.47;;;;;6.80;100894.00;;;;9872422;30;20644;-78
2023/01/10 13:51:21;;;;;;;13.90;2.07;;;;;6.80;100894.00;;;;9873595;30;20212;-78
2023/01/10 13:56:40;;;;;;;9.63;2.30;;;;;6.70;100886.00;;;;9857736;30;20202;-78
2023/01/10 14:07:29;;;;;;;6.00;1.50;;;;;6.50;100854.00;;;;9873492;30;20561;-79
2023/01/10 14:12:46;;;;;;;8.93;2.37;;;;;6.40;100844.00;;;;9879414;29;20591;-78
2023/01/10 14:18:25;;;;;;;8.37;2.10;;;;;6.40;100823.00;;;;9858564;30;20210;-78
2023/01/10 14:23:40;;;;;;;5.90;1.90;;;;;6.30;100804.00;;;;9876131;29;20207;-79
2023/01/10 14:28:42;;;;;;;6.60;1.83;;;;;6.30;100797.00;;;;9851220;30;20310;-78
2023/01/10 14:33:45;;;;;;;4.67;2.27;;;;;6.20;100778.00;;;;9872244;30;20271;-78
2023/01/10 14:38:51;;;;;;;3.60;1.47;;;;;6.20;100780.00;;;;9857248;30;20204;-78
2023/01/10 14:43:53;;;;;;;3.33;1.40;;;;;6.10;100786.00;;;;9871624;30;20203;-78
2023/01/10 14:48:59;;;;;;;5.53;1.20;;;;;6.20;100773.00;;;;9853689;29;20243;-78
2023/01/10 14:54:11;;;;;;;3.73;1.33;;;;;6.20;100778.00;;;;9870175;29;20672;-78
2023/01/10 14:59:33;;;;;;;6.13;1.17;;;;;6.20;100763.00;;;;9857293;29;20302;-78
2023/01/10 15:04:35;;;;;;;6.03;1.93;;;;;6.20;100733.00;;;;9842651;29;20473;-78
2023/01/10 15:09:37;;;;;;;6.43;1.67;;;;;6.30;100747.00;;;;9858293;29;20652;-81
2023/01/10 15:14:39;;;;;;;3.50;1.00;;;;;6.30;100719.00;;;;9856049;29;20294;-79
2023/01/10 15:19:43;;;;;;;2.63;0.83;;;;;6.20;100717.00;;;;9881607;29;20200;-78
2023/01/10 15:25:24;;;;;;;2.27;0.47;;;;;6.20;100729.00;;;;9873917;29;20235;-79
2023/01/10 15:30:29;;;;;;;1.40;0.50;;;;;6.20;100713.00;;;;9873368;29;20208;-78
2023/01/10 15:35:32;;;;;;;2.10;0.30;;;;;6.20;100697.00;;;;9874878;29;20191;-77
2023/01/10 15:40:39;;;;;;;0.37;0.33;;;;;6.20;100687.00;;;;9886355;30;20564;-78
2023/01/10 15:45:43;;;;;;;1.90;0.30;;;;;6.20;100682.00;;;;9868607;29;20222;-78
2023/01/10 15:51:03;;;;;;;1.07;0.40;;;;;6.20;100683.00;;;;9852607;29;20192;-78
2023/01/10 15:56:15;;;;;;;0.30;0.30;;;;;6.20;100687.00;;;;9875668;29;20218;-78
2023/01/10 16:01:18;;;;;;;0.37;0.30;;;;;6.20;100680.00;;;;9872257;29;20272;-78
2023/01/10 16:06:29;;;;;;;0.50;0.50;;;;;6.30;100675.00;;;;9872701;30;20219;-79
2023/01/10 16:16:57;;;;;;;1.23;0.50;;;;;6.30;100667.00;;;;9874322;29;20696;-78
2023/01/10 16:21:59;;;;;;;1.40;0.40;;;;;6.30;100667.00;;;;9870096;29;20634;-77
2023/01/10 16:27:04;;;;;;;0.73;0.40;;;;;6.40;100662.00;;;;9871668;29;20207;-78
2023/01/10 16:32:13;;;;;;;0.43;0.40;;;;;6.40;100666.00;;;;9873658;30;20211;-78
2023/01/10 16:37:15;;;;;;;0.40;0.40;;;;;6.40;100655.00;;;;9893479;30;20217;-78
2023/01/10 16:47:38;;;;;;;0.50;0.50;;;;;6.60;100650.00;;;;9892984;30;20256;-78
2023/01/10 16:52:40;;;;;;;0.57;0.57;;;;;6.70;100633.00;;;;9892365;29;20211;-77
2023/01/10 16:57:45;;;;;;;1.00;0.60;;;;;6.80;100653.00;;;;9877126;30;20208;-77
2023/01/10 17:02:47;;;;;;;2.43;0.80;;;;;6.80;100637.00;;;;9870410;30;20532;-78
2023/01/10 17:07:49;;;;;;;2.23;1.40;;;;;6.80;100629.00;;;;9850747;29;20313;-77
2023/01/10 17:12:52;;;;;;;3.10;0.60;;;;;6.90;100623.00;;;;9840219;30;20235;-78
2023/01/10 17:17:54;;;;;;;3.70;0.80;;;;;7.00;100623.00;;;;9856416;30;20219;-78
2023/01/10 17:22:56;;;;;;;0.70;0.70;;;;;7.00;100623.00;;;;9876822;30;20188;-78
2023/01/10 17:27:58;;;;;;;0.77;0.77;;;;;7.10;100611.00;;;;9860974;30;20721;-78
2023/01/10 17:33:00;;;;;;;1.17;0.90;;;;;7.10;100603.00;;;;9878083;29;20245;-77
2023/01/10 17:38:02;;;;;;;0.60;0.60;;;;;7.20;100583.00;;;;9890271;30;20200;-77
2023/01/10 17:43:04;;;;;;;2.40;0.77;;;;;7.40;100605.00;;;;9874439;30;20195;-79
2023/01/10 17:48:07;;;;;;;3.07;0.93;;;;;7.40;100591.00;;;;9894266;29;20227;-80
2023/01/10 17:53:09;;;;;;;0.80;0.77;;;;;7.40;100588.00;;;;9867974;30;20208;-80
2023/01/10 17:58:12;;;;;;;2.40;1.17;;;;;7.40;100568.00;;;;9904649;30;20211;-80
2023/01/10 18:03:14;;;;;;;3.03;1.10;;;;;7.40;100572.00;;;;9890607;30;20203;-79
2023/01/10 18:08:16;;;;;;;1.10;0.90;;;;;7.40;100558.00;;;;9875682;30;20220;-77
2023/01/10 18:13:21;;;;;;;0.90;0.90;;;;;7.50;100555.00;;;;9886201;30;20645;-80
2023/01/10 18:18:25;;;;;;;1.23;1.07;;;;;7.60;100552.00;;;;9889526;29;20675;-79
2023/01/10 18:23:29;;;;;;;2.00;1.20;;;;;7.80;100546.00;;;;9856657;30;20207;-79
2023/01/10 18:28:38;;;;;;;1.50;1.07;;;;;7.80;100548.00;;;;9872856;30;20216;-77
2023/01/10 18:33:44;;;;;;;1.60;1.50;;;;;7.90;100546.00;;;;9876803;29;20204;-79
2023/01/10 18:38:50;;;;;;;1.90;1.23;;;;;8.00;100553.00;;;;9878350;30;20230;-80
2023/01/10 18:43:52;;;;;;;2.17;1.40;;;;;8.00;100540.00;;;;9882904;30;20192;-77
2023/01/10 18:48:54;;;;;;;2.03;1.20;;;;;8.10;100524.00;;;;9869900;30;20235;-77
2023/01/10 18:53:56;;;;;;;2.13;1.77;;;;;8.20;100521.00;;;;9858338;29;20207;-80
2023/01/10 18:58:58;;;;;;;2.00;1.60;;;;;8.30;100517.00;;;;9872257;30;20520;-77
2023/01/10 19:04:00;;;;;;;3.13;1.73;;;;;8.40;100512.00;;;;9872696;30;20211;-77
2023/01/10 19:09:02;;;;;;;4.83;1.90;;;;;8.50;100516.00;;;;9887279;29;20212;-79
2023/01/10 19:14:04;;;;;;;1.33;1.17;;;;;8.60;100503.00;;;;9886711;29;20203;-77
2023/01/10 19:19:10;;;;;;;4.50;2.13;;;;;8.60;100511.00;;;;9872765;30;20191;-80
2023/01/10 19:24:23;;;;;;;2.03;1.83;;;;;8.70;100508.00;;;;9887028;30;20228;-80
2023/01/10 19:29:25;;;;;;;2.67;1.17;;;;;8.80;100508.00;;;;9858400;30;20761;-80
2023/01/10 19:34:27;;;;;;;3.57;2.13;;;;;8.90;100487.00;;;;9882776;29;20671;-80
2023/01/10 19:39:29;;;;;;;5.80;2.07;;;;;9.00;100493.00;;;;9871638;30;20229;-77
2023/01/10 19:44:31;;;;;;;2.73;1.93;;;;;9.10;100481.00;;;;9870911;30;20315;-79
2023/01/10 19:49:35;;;;;;;3.73;1.50;;;;;9.10;100467.00;;;;9903173;30;20226;-77
2023/01/10 19:54:37;;;;;;;2.63;1.80;;;;;9.10;100470.00;;;;9910528;29;20208;-77
2023/01/10 19:59:40;;;;;;;1.97;1.73;;;;;9.20;100463.00;;;;9869847;30;20607;-77
2023/01/10 20:04:42;;;;;;;3.00;1.83;;;;;9.20;100464.00;;;;9861601;30;20200;-77
2023/01/10 20:09:44;;;;;;;6.20;1.70;;;;;9.20;100460.00;;;;9886305;29;20802;-79
2023/01/10 20:14:47;;;;;;;3.60;1.33;;;;;9.10;100452.00;;;;9901278;29;20216;-77
2023/01/10 20:19:49;;;;;;;2.13;1.63;;;;;9.10;100455.00;;;;9904082;29;20229;-79
2023/01/10 20:24:52;;;;;;;1.57;1.27;;;;;9.10;100441.00;;;;9863780;30;20203;-79
2023/01/10 20:29:54;;;;;;;1.30;1.20;;;;;9.10;100434.00;;;;9896924;29;20220;-77
2023/01/10 20:34:56;;;;;;;1.67;1.27;;;;;9.10;100436.00;;;;9876887;30;20196;-77
2023/01/10 20:39:58;;;;;;;1.63;1.20;;;;;9.10;100431.00;;;;9877086;30;20202;-77
2023/01/10 20:44:59;;;;;;;2.17;1.47;;;;;9.20;100434.00;;;;9891170;30;20195;-79
2023/01/10 20:50:02;;;;;;;4.67;1.33;;;;;9.20;100430.00;;;;9877081;30;20212;-77
2023/01/10 20:55:04;;;;;;;1.40;1.20;;;;;9.30;100415.00;;;;9893350;30;20269;-77
2023/01/10 21:00:07;;;;;;;1.70;0.93;;;;;9.40;100405.00;;;;9874263;30;20200;-77
2023/01/10 21:05:09;;;;;;;6.47;3.50;;;;;9.40;100406.00;;;;9886001;30;20402;-77
2023/01/10 21:10:11;;;;;;;2.27;1.33;;;;;9.50;100409.00;;;;9884369;29;20549;-77
2023/01/10 21:15:13;;;;;;;2.23;1.40;;;;;9.60;100404.00;;;;9878195;30;20311;-78
2023/01/10 21:20:15;;;;;;;2.67;1.30;;;;;9.70;100393.00;;;;9881527;29;20275;-77
2023/01/10 21:25:17;;;;;;;3.00;1.57;;;;;9.80;100383.00;;;;9860980;30;20270;-77
2023/01/10 21:30:19;;;;;;;3.93;1.60;;;;;9.90;100383.00;;;;9875026;30;20200;-77
2023/01/10 21:35:21;;;;;;;4.60;1.80;;;;;10.00;100386.00;;;;9885205;30;20200;-78
2023/01/10 21:40:24;;;;;;;4.07;2.07;;;;;10.00;100372.00;;;;9858561;29;20195;-77
2023/01/10 21:45:27;;;;;;;4.73;1.67;;;;;10.00;100360.00;;;;9863037;30;20200;-77
2023/01/10 21:50:32;;;;;;;2.83;1.57;;;;;10.10;100365.00;;;;9886649;30;20210;-77
2023/01/10 21:55:35;;;;;;;9.63;2.60;;;;;10.20;100348.00;;;;9876462;30;20294;-77
2023/01/10 22:00:37;;;;;;;2.87;1.90;;;;;10.20;100351.00;;;;9865924;30;20242;-77
2023/01/10 22:05:39;;;;;;;1.50;1.40;;;;;10.30;100340.00;;;;9854140;29;20216;-78
2023/01/10 22:10:41;;;;;;;5.70;2.03;;;;;10.40;100338.00;;;;9900626;29;20231;-77
2023/01/10 22:15:43;;;;;;;5.57;1.80;;;;;10.40;100342.00;;;;9861653;29;20629;-77
2023/01/10 22:20:45;;;;;;;5.67;1.70;;;;;10.50;100342.00;;;;9883558;30;20254;-77
2023/01/10 22:26:01;;;;;;;2.83;1.67;;;;;10.50;100334.00;;;;9850332;29;20819;-77
2023/01/10 22:31:03;;;;;;;3.63;1.40;;;;;10.40;100345.00;;;;9882440;30;20204;-77
2023/01/10 22:36:11;;;;;;;2.87;1.27;;;;;10.40;100342.00;;;;9897311;29;20195;-76
2023/01/10 22:41:18;;;;;;;2.03;1.30;;;;;10.50;100338.00;;;;9866616;29;20207;-77
2023/01/10 22:46:21;;;;;;;2.90;1.17;;;;;10.50;100323.00;;;;9870501;29;20215;-77
2023/01/10 22:51:24;;;;;;;2.10;1.10;;;;;10.60;100302.00;;;;9855114;29;20214;-77
2023/01/10 22:56:26;;;;;;;2.53;1.30;;;;;10.60;100310.00;;;;9845643;29;20210;-77
2023/01/10 23:01:28;;;;;;;4.40;1.50;;;;;10.80;100290.00;;;;9856715;29;20618;-77
2023/01/10 23:06:30;;;;;;;2.13;1.03;;;;;10.80;100294.00;;;;9864030;29;20218;-77
2023/01/10 23:11:32;;;;;;;3.10;1.30;;;;;10.90;100287.00;;;;9863755;30;20231;-77
2023/01/10 23:16:34;;;;;;;2.50;1.03;;;;;10.90;100281.00;;;;9856718;30;20199;-77
2023/01/10 23:21:36;;;;;;;2.70;1.13;;;;;11.00;100289.00;;;;9858478;30;20199;-77
2023/01/10 23:26:38;;;;;;;1.73;1.20;;;;;11.00;100286.00;;;;9885058;30;20553;-77
2023/01/10 23:31:40;;;;;;;1.97;1.30;;;;;11.10;100275.00;;;;9864272;30;20204;-77
2023/01/10 23:36:42;;;;;;;2.53;1.60;;;;;11.20;100274.00;;;;9888609;30;20620;-77
2023/01/10 23:41:44;;;;;;;4.07;1.37;;;;;11.20;100273.00;;;;9885653;30;20229;-77
2023/01/10 23:46:45;;;;;;;3.27;1.23;;;;;11.20;100271.00;;;;9868951;30;20227;-77
2023/01/10 23:51:47;;;;;;;6.17;1.37;;;;;11.20;100267.00;;;;9856805;30;20221;-77
2023/01/10 23:56:51;;;;;;;4.37;1.60;;;;;11.20;100266.00;;;;9862026;30;20200;-77
